Terminal Aerodrome Forecast
Issued by NWS Cleveland, OH

Home | Current Version | Previous Version | Text Only | Print | Product List | Glossary On
Versions: 1 2 3 4 5 6 7 8 9 10 11 12 13 14 15 16 17 18
000
FTUS41 KCLE 251736
TAFMFD
TAF
KMFD 251736Z 2518/2618 22010KT P6SM SCT030
     FM252100 24012KT P6SM VCTS BKN040CB
      TEMPO 2522/2602 2SM TSRA BR OVC015CB
     FM260300 24008KT 4SM BR OVC020
     FM261400 33006KT P6SM SCT040=

USA.gov is the U.S. government's official web portal to all federal, state and local government web resources and services.